sensor_id;sensor_type;location;lat;lon;timestamp;P1;durP1;ratioP1;P2;durP2;ratioP2
32748;SDS011;19119;52.474;13.710;2023-03-01T00:01:24;6.85;;;5.22;;
32748;SDS011;19119;52.474;13.710;2023-03-01T00:03:52;12.57;;;6.13;;
32748;SDS011;19119;52.474;13.710;2023-03-01T00:06:18;9.33;;;5.53;;
32748;SDS011;19119;52.474;13.710;2023-03-01T00:08:44;9.13;;;6.32;;
32748;SDS011;19119;52.474;13.710;2023-03-01T00:11:18;13.32;;;5.65;;
32748;SDS011;19119;52.474;13.710;2023-03-01T00:13:44;9.40;;;5.20;;
32748;SDS011;19119;52.474;13.710;2023-03-01T00:16:14;13.20;;;5.75;;
32748;SDS011;19119;52.474;13.710;2023-03-01T00:18:41;15.05;;;6.63;;
32748;SDS011;19119;52.474;13.710;2023-03-01T00:21:10;8.77;;;5.50;;
32748;SDS011;19119;52.474;13.710;2023-03-01T00:23:37;8.43;;;5.93;;
32748;SDS011;19119;52.474;13.710;2023-03-01T00:26:05;7.93;;;5.30;;
32748;SDS011;19119;52.474;13.710;2023-03-01T00:31:09;12.20;;;6.97;;
32748;SDS011;19119;52.474;13.710;2023-03-01T00:33:37;6.47;;;4.10;;
32748;SDS011;19119;52.474;13.710;2023-03-01T00:36:03;11.07;;;6.13;;
32748;SDS011;19119;52.474;13.710;2023-03-01T00:38:29;9.93;;;5.22;;
32748;SDS011;19119;52.474;13.710;2023-03-01T00:40:55;11.80;;;5.15;;
32748;SDS011;19119;52.474;13.710;2023-03-01T00:43:23;8.32;;;5.35;;
32748;SDS011;19119;52.474;13.710;2023-03-01T00:45:49;8.87;;;5.43;;
32748;SDS011;19119;52.474;13.710;2023-03-01T00:48:14;8.17;;;4.33;;
32748;SDS011;19119;52.474;13.710;2023-03-01T00:50:40;10.17;;;5.17;;
32748;SDS011;19119;52.474;13.710;2023-03-01T00:53:09;8.30;;;4.70;;
32748;SDS011;19119;52.474;13.710;2023-03-01T00:55:35;7.95;;;5.05;;
32748;SDS011;19119;52.474;13.710;2023-03-01T00:58:01;11.10;;;5.30;;
32748;SDS011;19119;52.474;13.710;2023-03-01T01:00:27;9.93;;;5.37;;
32748;SDS011;19119;52.474;13.710;2023-03-01T01:02:52;7.85;;;5.55;;
32748;SDS011;19119;52.474;13.710;2023-03-01T01:05:18;11.53;;;5.27;;
32748;SDS011;19119;52.474;13.710;2023-03-01T01:07:45;7.50;;;5.30;;
32748;SDS011;19119;52.474;13.710;2023-03-01T01:10:11;9.40;;;4.00;;
32748;SDS011;19119;52.474;13.710;2023-03-01T08:21:41;11.57;;;5.57;;
32748;SDS011;19119;52.474;13.710;2023-03-01T08:24:06;7.75;;;4.40;;
32748;SDS011;19119;52.474;13.710;2023-03-01T08:26:33;7.40;;;4.28;;
32748;SDS011;19119;52.474;13.710;2023-03-01T08:28:59;8.98;;;4.47;;
32748;SDS011;19119;52.474;13.710;2023-03-01T08:31:29;9.85;;;4.90;;
32748;SDS011;19119;52.474;13.710;2023-03-01T08:34:00;10.52;;;4.63;;
32748;SDS011;19119;52.474;13.710;2023-03-01T08:36:30;7.70;;;4.78;;
32748;SDS011;19119;52.474;13.710;2023-03-01T08:38:58;6.75;;;3.53;;
32748;SDS011;19119;52.474;13.710;2023-03-01T08:41:24;11.45;;;4.78;;
32748;SDS011;19119;52.474;13.710;2023-03-01T08:43:50;7.70;;;4.35;;
32748;SDS011;19119;52.474;13.710;2023-03-01T08:46:35;9.43;;;4.20;;
32748;SDS011;19119;52.474;13.710;2023-03-01T08:49:04;8.55;;;4.10;;
32748;SDS011;19119;52.474;13.710;2023-03-01T08:51:30;6.38;;;3.33;;
32748;SDS011;19119;52.474;13.710;2023-03-01T08:54:01;7.28;;;3.58;;
32748;SDS011;19119;52.474;13.710;2023-03-01T08:56:30;9.45;;;6.78;;
32748;SDS011;19119;52.474;13.710;2023-03-01T08:58:56;8.73;;;4.82;;
32748;SDS011;19119;52.474;13.710;2023-03-01T09:01:22;8.20;;;4.68;;
32748;SDS011;19119;52.474;13.710;2023-03-01T09:03:47;9.57;;;4.63;;
32748;SDS011;19119;52.474;13.710;2023-03-01T09:06:13;12.43;;;4.85;;
32748;SDS011;19119;52.474;13.710;2023-03-01T09:08:41;9.77;;;3.92;;
32748;SDS011;19119;52.474;13.710;2023-03-01T09:11:10;11.80;;;6.45;;
32748;SDS011;19119;52.474;13.710;2023-03-01T09:13:37;11.75;;;7.25;;
32748;SDS011;19119;52.474;13.710;2023-03-01T09:16:04;8.50;;;4.40;;
32748;SDS011;19119;52.474;13.710;2023-03-01T09:18:31;7.28;;;3.83;;
32748;SDS011;19119;52.474;13.710;2023-03-01T09:21:16;7.32;;;4.03;;
32748;SDS011;19119;52.474;13.710;2023-03-01T09:23:44;5.85;;;2.88;;
32748;SDS011;19119;52.474;13.710;2023-03-01T09:26:12;6.22;;;3.45;;
32748;SDS011;19119;52.474;13.710;2023-03-01T09:28:48;6.03;;;3.60;;
32748;SDS011;19119;52.474;13.710;2023-03-01T09:31:17;4.65;;;2.67;;
32748;SDS011;19119;52.474;13.710;2023-03-01T09:33:45;3.50;;;2.42;;
32748;SDS011;19119;52.474;13.710;2023-03-01T09:36:17;5.07;;;2.60;;
32748;SDS011;19119;52.474;13.710;2023-03-01T09:38:44;3.55;;;2.30;;
32748;SDS011;19119;52.474;13.710;2023-03-01T09:41:11;5.97;;;2.60;;
32748;SDS011;19119;52.474;13.710;2023-03-01T09:44:13;6.25;;;2.35;;
32748;SDS011;19119;52.474;13.710;2023-03-01T09:47:00;4.38;;;2.40;;
32748;SDS011;19119;52.474;13.710;2023-03-01T09:49:28;4.43;;;3.03;;
32748;SDS011;19119;52.474;13.710;2023-03-01T09:52:13;5.40;;;3.30;;
32748;SDS011;19119;52.474;13.710;2023-03-01T09:55:07;8.15;;;4.13;;
32748;SDS011;19119;52.474;13.710;2023-03-01T09:57:43;8.55;;;3.80;;
32748;SDS011;19119;52.474;13.710;2023-03-01T10:02:49;7.37;;;4.07;;
32748;SDS011;19119;52.474;13.710;2023-03-01T10:08:19;7.65;;;3.30;;
32748;SDS011;19119;52.474;13.710;2023-03-01T10:11:30;5.75;;;3.35;;
32748;SDS011;19119;52.474;13.710;2023-03-01T10:19:08;7.20;;;3.22;;
32748;SDS011;19119;52.474;13.710;2023-03-01T10:21:38;6.85;;;3.83;;
32748;SDS011;19119;52.474;13.710;2023-03-01T10:24:16;6.65;;;2.97;;
32748;SDS011;19119;52.474;13.710;2023-03-01T10:26:54;8.23;;;3.47;;
32748;SDS011;19119;52.474;13.710;2023-03-01T10:29:23;7.90;;;4.18;;
32748;SDS011;19119;52.474;13.710;2023-03-01T10:31:55;8.50;;;3.50;;
32748;SDS011;19119;52.474;13.710;2023-03-01T10:34:32;7.03;;;3.33;;
32748;SDS011;19119;52.474;13.710;2023-03-01T10:39:53;7.13;;;3.15;;
32748;SDS011;19119;52.474;13.710;2023-03-01T10:42:28;6.20;;;2.55;;
32748;SDS011;19119;52.474;13.710;2023-03-01T10:44:55;6.38;;;2.75;;
32748;SDS011;19119;52.474;13.710;2023-03-01T10:47:22;6.15;;;2.50;;
32748;SDS011;19119;52.474;13.710;2023-03-01T10:50:22;3.97;;;1.90;;
32748;SDS011;19119;52.474;13.710;2023-03-01T10:52:55;6.55;;;2.47;;
32748;SDS011;19119;52.474;13.710;2023-03-01T10:55:35;3.25;;;1.90;;
32748;SDS011;19119;52.474;13.710;2023-03-01T10:58:15;5.25;;;1.83;;
32748;SDS011;19119;52.474;13.710;2023-03-01T11:00:55;2.83;;;1.80;;
32748;SDS011;19119;52.474;13.710;2023-03-01T11:06:03;2.33;;;1.35;;
32748;SDS011;19119;52.474;13.710;2023-03-01T11:08:37;3.28;;;1.40;;
32748;SDS011;19119;52.474;13.710;2023-03-01T11:13:59;3.45;;;1.55;;
32748;SDS011;19119;52.474;13.710;2023-03-01T11:16:32;2.97;;;1.48;;
32748;SDS011;19119;52.474;13.710;2023-03-01T11:21:34;2.42;;;1.50;;
32748;SDS011;19119;52.474;13.710;2023-03-01T11:24:06;3.80;;;1.83;;
32748;SDS011;19119;52.474;13.710;2023-03-01T11:26:37;7.07;;;3.15;;
32748;SDS011;19119;52.474;13.710;2023-03-01T11:29:07;3.22;;;1.25;;
32748;SDS011;19119;52.474;13.710;2023-03-01T11:31:46;3.58;;;1.55;;
32748;SDS011;19119;52.474;13.710;2023-03-01T11:34:14;2.80;;;1.65;;
32748;SDS011;19119;52.474;13.710;2023-03-01T11:36:49;2.57;;;1.30;;
32748;SDS011;19119;52.474;13.710;2023-03-01T11:39:31;2.25;;;1.50;;
32748;SDS011;19119;52.474;13.710;2023-03-01T11:42:17;4.18;;;1.60;;
32748;SDS011;19119;52.474;13.710;2023-03-01T11:45:05;3.38;;;1.05;;
32748;SDS011;19119;52.474;13.710;2023-03-01T11:50:20;3.88;;;1.70;;
32748;SDS011;19119;52.474;13.710;2023-03-01T11:55:53;4.20;;;1.30;;
32748;SDS011;19119;52.474;13.710;2023-03-01T12:29:11;4.07;;;1.38;;
32748;SDS011;19119;52.474;13.710;2023-03-01T12:31:59;2.67;;;1.25;;
32748;SDS011;19119;52.474;13.710;2023-03-01T12:39:51;3.67;;;1.45;;
32748;SDS011;19119;52.474;13.710;2023-03-01T12:42:34;4.38;;;1.90;;
32748;SDS011;19119;52.474;13.710;2023-03-01T12:50:48;5.15;;;1.60;;
32748;SDS011;19119;52.474;13.710;2023-03-01T12:53:20;2.28;;;1.30;;
32748;SDS011;19119;52.474;13.710;2023-03-01T12:55:52;3.30;;;1.70;;
32748;SDS011;19119;52.474;13.710;2023-03-01T12:58:38;3.17;;;1.63;;
32748;SDS011;19119;52.474;13.710;2023-03-01T13:09:14;5.90;;;1.63;;
32748;SDS011;19119;52.474;13.710;2023-03-01T13:11:58;4.07;;;1.33;;
32748;SDS011;19119;52.474;13.710;2023-03-01T13:16:55;3.33;;;1.13;;
32748;SDS011;19119;52.474;13.710;2023-03-01T13:19:25;3.45;;;0.90;;
32748;SDS011;19119;52.474;13.710;2023-03-01T13:21:57;2.75;;;1.52;;
32748;SDS011;19119;52.474;13.710;2023-03-01T13:24:26;1.92;;;1.10;;
32748;SDS011;19119;52.474;13.710;2023-03-01T13:29:46;1.95;;;1.08;;
32748;SDS011;19119;52.474;13.710;2023-03-01T13:34:45;1.67;;;1.00;;
32748;SDS011;19119;52.474;13.710;2023-03-01T13:37:20;2.35;;;1.20;;
32748;SDS011;19119;52.474;13.710;2023-03-01T13:39:51;3.85;;;1.20;;
32748;SDS011;19119;52.474;13.710;2023-03-01T13:42:31;3.65;;;1.27;;
32748;SDS011;19119;52.474;13.710;2023-03-01T13:44:57;2.38;;;1.00;;
32748;SDS011;19119;52.474;13.710;2023-03-01T13:47:23;2.75;;;1.30;;
32748;SDS011;19119;52.474;13.710;2023-03-01T13:49:56;2.72;;;1.40;;
32748;SDS011;19119;52.474;13.710;2023-03-01T13:52:39;4.53;;;1.60;;
32748;SDS011;19119;52.474;13.710;2023-03-01T13:57:40;2.37;;;1.20;;
32748;SDS011;19119;52.474;13.710;2023-03-01T14:00:29;2.40;;;1.27;;
32748;SDS011;19119;52.474;13.710;2023-03-01T14:02:59;3.75;;;1.25;;
32748;SDS011;19119;52.474;13.710;2023-03-01T14:05:32;3.30;;;1.30;;
32748;SDS011;19119;52.474;13.710;2023-03-01T14:07:58;2.55;;;1.23;;
32748;SDS011;19119;52.474;13.710;2023-03-01T14:10:25;4.13;;;1.63;;
32748;SDS011;19119;52.474;13.710;2023-03-01T14:13:08;3.72;;;1.38;;
32748;SDS011;19119;52.474;13.710;2023-03-01T14:18:55;3.60;;;1.85;;
32748;SDS011;19119;52.474;13.710;2023-03-01T14:21:32;2.25;;;1.35;;
32748;SDS011;19119;52.474;13.710;2023-03-01T14:23:58;3.47;;;1.23;;
32748;SDS011;19119;52.474;13.710;2023-03-01T14:26:24;1.85;;;1.23;;
32748;SDS011;19119;52.474;13.710;2023-03-01T14:28:50;3.53;;;1.60;;
32748;SDS011;19119;52.474;13.710;2023-03-01T14:31:49;4.68;;;2.70;;
32748;SDS011;19119;52.474;13.710;2023-03-01T14:34:16;2.25;;;1.23;;
32748;SDS011;19119;52.474;13.710;2023-03-01T14:36:45;3.45;;;1.55;;
32748;SDS011;19119;52.474;13.710;2023-03-01T14:39:23;3.42;;;1.48;;
32748;SDS011;19119;52.474;13.710;2023-03-01T14:41:54;3.80;;;1.65;;
32748;SDS011;19119;52.474;13.710;2023-03-01T14:44:20;3.70;;;1.73;;
32748;SDS011;19119;52.474;13.710;2023-03-01T14:46:51;2.30;;;1.15;;
32748;SDS011;19119;52.474;13.710;2023-03-01T14:49:20;3.20;;;1.17;;
32748;SDS011;19119;52.474;13.710;2023-03-01T14:54:28;3.53;;;1.30;;
32748;SDS011;19119;52.474;13.710;2023-03-01T14:57:05;2.42;;;1.40;;
32748;SDS011;19119;52.474;13.710;2023-03-01T14:59:32;2.30;;;1.20;;
32748;SDS011;19119;52.474;13.710;2023-03-01T15:01:59;3.55;;;1.50;;
32748;SDS011;19119;52.474;13.710;2023-03-01T15:04:27;4.03;;;1.70;;
32748;SDS011;19119;52.474;13.710;2023-03-01T15:06:54;3.17;;;1.52;;
32748;SDS011;19119;52.474;13.710;2023-03-01T15:09:29;3.30;;;1.30;;
32748;SDS011;19119;52.474;13.710;2023-03-01T15:11:57;1.95;;;1.08;;
32748;SDS011;19119;52.474;13.710;2023-03-01T15:14:26;2.30;;;1.25;;
32748;SDS011;19119;52.474;13.710;2023-03-01T15:19:59;2.70;;;1.20;;
32748;SDS011;19119;52.474;13.710;2023-03-01T15:22:29;2.83;;;1.40;;
32748;SDS011;19119;52.474;13.710;2023-03-01T15:24:55;2.67;;;1.40;;
32748;SDS011;19119;52.474;13.710;2023-03-01T15:27:22;2.15;;;1.33;;
32748;SDS011;19119;52.474;13.710;2023-03-01T15:29:58;4.43;;;1.00;;
32748;SDS011;19119;52.474;13.710;2023-03-01T15:40:57;2.00;;;0.98;;
32748;SDS011;19119;52.474;13.710;2023-03-01T15:43:44;2.70;;;1.05;;
32748;SDS011;19119;52.474;13.710;2023-03-01T15:48:48;3.45;;;1.10;;
32748;SDS011;19119;52.474;13.710;2023-03-01T15:51:17;3.55;;;1.60;;
32748;SDS011;19119;52.474;13.710;2023-03-01T15:53:51;3.58;;;1.75;;
32748;SDS011;19119;52.474;13.710;2023-03-01T15:56:17;2.35;;;1.35;;
32748;SDS011;19119;52.474;13.710;2023-03-01T15:58:43;2.53;;;1.00;;
32748;SDS011;19119;52.474;13.710;2023-03-01T16:01:18;3.80;;;1.30;;
32748;SDS011;19119;52.474;13.710;2023-03-01T16:03:44;2.50;;;1.15;;
32748;SDS011;19119;52.474;13.710;2023-03-01T16:06:10;2.78;;;1.27;;
32748;SDS011;19119;52.474;13.710;2023-03-01T16:08:39;2.67;;;1.20;;
32748;SDS011;19119;52.474;13.710;2023-03-01T16:11:14;4.10;;;1.20;;
32748;SDS011;19119;52.474;13.710;2023-03-01T16:13:42;4.10;;;1.40;;
32748;SDS011;19119;52.474;13.710;2023-03-01T16:16:11;4.20;;;1.80;;
32748;SDS011;19119;52.474;13.710;2023-03-01T16:18:44;4.45;;;1.52;;
32748;SDS011;19119;52.474;13.710;2023-03-01T16:21:12;2.42;;;1.40;;
32748;SDS011;19119;52.474;13.710;2023-03-01T16:23:46;6.53;;;1.80;;
32748;SDS011;19119;52.474;13.710;2023-03-01T16:26:12;4.47;;;1.88;;
32748;SDS011;19119;52.474;13.710;2023-03-01T16:28:38;6.28;;;2.10;;
32748;SDS011;19119;52.474;13.710;2023-03-01T16:31:04;2.78;;;1.70;;
32748;SDS011;19119;52.474;13.710;2023-03-01T16:33:30;5.10;;;2.10;;
32748;SDS011;19119;52.474;13.710;2023-03-01T16:35:56;6.93;;;2.95;;
32748;SDS011;19119;52.474;13.710;2023-03-01T16:38:23;7.50;;;2.50;;
32748;SDS011;19119;52.474;13.710;2023-03-01T16:40:50;9.32;;;2.63;;
32748;SDS011;19119;52.474;13.710;2023-03-01T16:43:16;4.68;;;2.10;;
32748;SDS011;19119;52.474;13.710;2023-03-01T16:45:42;6.40;;;2.78;;
32748;SDS011;19119;52.474;13.710;2023-03-01T16:48:09;6.97;;;2.72;;
32748;SDS011;19119;52.474;13.710;2023-03-01T16:50:35;6.57;;;3.53;;
32748;SDS011;19119;52.474;13.710;2023-03-01T16:53:01;4.00;;;2.22;;
32748;SDS011;19119;52.474;13.710;2023-03-01T16:55:27;6.78;;;2.60;;
32748;SDS011;19119;52.474;13.710;2023-03-01T16:57:53;12.45;;;3.35;;
32748;SDS011;19119;52.474;13.710;2023-03-01T17:00:19;12.52;;;3.22;;
32748;SDS011;19119;52.474;13.710;2023-03-01T17:02:48;11.55;;;3.00;;
32748;SDS011;19119;52.474;13.710;2023-03-01T17:05:14;5.55;;;2.88;;
32748;SDS011;19119;52.474;13.710;2023-03-01T17:07:39;7.55;;;2.30;;
32748;SDS011;19119;52.474;13.710;2023-03-01T17:10:06;6.05;;;1.90;;
32748;SDS011;19119;52.474;13.710;2023-03-01T17:12:33;8.43;;;2.70;;
32748;SDS011;19119;52.474;13.710;2023-03-01T17:14:59;4.50;;;1.73;;
32748;SDS011;19119;52.474;13.710;2023-03-01T17:17:25;5.47;;;2.25;;
32748;SDS011;19119;52.474;13.710;2023-03-01T17:19:51;7.60;;;2.10;;
32748;SDS011;19119;52.474;13.710;2023-03-01T17:22:17;5.10;;;2.17;;
32748;SDS011;19119;52.474;13.710;2023-03-01T17:24:46;6.47;;;2.28;;
32748;SDS011;19119;52.474;13.710;2023-03-01T17:27:12;8.30;;;2.00;;
32748;SDS011;19119;52.474;13.710;2023-03-01T17:29:38;3.72;;;1.80;;
32748;SDS011;19119;52.474;13.710;2023-03-01T17:32:05;4.78;;;2.08;;
32748;SDS011;19119;52.474;13.710;2023-03-01T17:34:31;9.73;;;2.20;;
32748;SDS011;19119;52.474;13.710;2023-03-01T17:37:00;4.55;;;2.13;;
32748;SDS011;19119;52.474;13.710;2023-03-01T17:39:26;4.75;;;1.95;;
32748;SDS011;19119;52.474;13.710;2023-03-01T17:41:55;3.75;;;1.83;;
32748;SDS011;19119;52.474;13.710;2023-03-01T17:44:21;7.72;;;2.53;;
32748;SDS011;19119;52.474;13.710;2023-03-01T17:46:47;10.05;;;4.18;;
32748;SDS011;19119;52.474;13.710;2023-03-01T17:49:13;14.77;;;6.05;;
32748;SDS011;19119;52.474;13.710;2023-03-01T17:51:38;23.35;;;7.65;;
32748;SDS011;19119;52.474;13.710;2023-03-01T17:54:04;17.02;;;7.38;;
32748;SDS011;19119;52.474;13.710;2023-03-01T17:56:30;22.95;;;7.38;;
32748;SDS011;19119;52.474;13.710;2023-03-01T17:58:59;18.05;;;7.80;;
32748;SDS011;19119;52.474;13.710;2023-03-01T18:01:25;23.73;;;7.90;;
32748;SDS011;19119;52.474;13.710;2023-03-01T18:03:51;17.27;;;8.02;;
32748;SDS011;19119;52.474;13.710;2023-03-01T18:06:19;15.43;;;7.63;;
32748;SDS011;19119;52.474;13.710;2023-03-01T18:08:49;17.33;;;7.95;;
32748;SDS011;19119;52.474;13.710;2023-03-01T18:11:16;14.65;;;7.00;;
32748;SDS011;19119;52.474;13.710;2023-03-01T18:13:43;14.85;;;6.65;;
32748;SDS011;19119;52.474;13.710;2023-03-01T18:16:12;15.75;;;6.68;;
32748;SDS011;19119;52.474;13.710;2023-03-01T18:18:39;15.05;;;5.95;;
32748;SDS011;19119;52.474;13.710;2023-03-01T18:21:06;11.77;;;5.65;;
32748;SDS011;19119;52.474;13.710;2023-03-01T18:23:32;12.30;;;5.57;;
32748;SDS011;19119;52.474;13.710;2023-03-01T18:26:00;12.02;;;5.90;;
32748;SDS011;19119;52.474;13.710;2023-03-01T18:28:28;14.23;;;5.72;;
32748;SDS011;19119;52.474;13.710;2023-03-01T18:30:55;13.07;;;6.43;;
32748;SDS011;19119;52.474;13.710;2023-03-01T18:33:22;15.63;;;7.03;;
32748;SDS011;19119;52.474;13.710;2023-03-01T18:35:48;17.95;;;6.43;;
32748;SDS011;19119;52.474;13.710;2023-03-01T18:38:14;20.75;;;7.47;;
32748;SDS011;19119;52.474;13.710;2023-03-01T18:40:44;16.73;;;7.20;;
32748;SDS011;19119;52.474;13.710;2023-03-01T18:43:10;15.80;;;7.07;;
32748;SDS011;19119;52.474;13.710;2023-03-01T18:45:35;22.05;;;8.07;;
32748;SDS011;19119;52.474;13.710;2023-03-01T18:48:01;13.55;;;7.32;;
32748;SDS011;19119;52.474;13.710;2023-03-01T18:50:27;20.65;;;8.00;;
32748;SDS011;19119;52.474;13.710;2023-03-01T18:52:53;18.02;;;8.15;;
32748;SDS011;19119;52.474;13.710;2023-03-01T18:55:19;18.27;;;8.55;;
32748;SDS011;19119;52.474;13.710;2023-03-01T18:57:45;19.80;;;8.02;;
32748;SDS011;19119;52.474;13.710;2023-03-01T19:00:10;20.50;;;9.25;;
32748;SDS011;19119;52.474;13.710;2023-03-01T19:02:36;21.10;;;8.93;;
32748;SDS011;19119;52.474;13.710;2023-03-01T19:05:02;17.98;;;8.23;;
32748;SDS011;19119;52.474;13.710;2023-03-01T19:07:28;19.05;;;8.85;;
32748;SDS011;19119;52.474;13.710;2023-03-01T19:09:55;23.63;;;10.15;;
32748;SDS011;19119;52.474;13.710;2023-03-01T19:12:21;18.05;;;9.50;;
32748;SDS011;19119;52.474;13.710;2023-03-01T19:14:47;21.80;;;10.35;;
32748;SDS011;19119;52.474;13.710;2023-03-01T19:17:12;21.27;;;10.57;;
32748;SDS011;19119;52.474;13.710;2023-03-01T19:19:38;28.58;;;10.40;;
32748;SDS011;19119;52.474;13.710;2023-03-01T19:22:04;19.63;;;9.90;;
32748;SDS011;19119;52.474;13.710;2023-03-01T19:24:32;21.40;;;10.60;;
32748;SDS011;19119;52.474;13.710;2023-03-01T19:26:59;22.40;;;10.82;;
32748;SDS011;19119;52.474;13.710;2023-03-01T19:29:24;20.65;;;9.38;;
32748;SDS011;19119;52.474;13.710;2023-03-01T19:31:50;16.27;;;10.00;;
32748;SDS011;19119;52.474;13.710;2023-03-01T19:34:16;19.02;;;8.93;;
32748;SDS011;19119;52.474;13.710;2023-03-01T19:36:42;21.38;;;9.60;;
32748;SDS011;19119;52.474;13.710;2023-03-01T19:39:12;20.25;;;9.35;;
32748;SDS011;19119;52.474;13.710;2023-03-01T19:41:38;21.25;;;9.80;;
32748;SDS011;19119;52.474;13.710;2023-03-01T19:44:04;19.88;;;8.75;;
32748;SDS011;19119;52.474;13.710;2023-03-01T19:46:30;20.55;;;11.85;;
32748;SDS011;19119;52.474;13.710;2023-03-01T19:49:00;21.45;;;9.88;;
32748;SDS011;19119;52.474;13.710;2023-03-01T19:51:27;23.70;;;10.40;;
32748;SDS011;19119;52.474;13.710;2023-03-01T19:53:53;18.75;;;10.07;;
32748;SDS011;19119;52.474;13.710;2023-03-01T19:56:18;16.65;;;9.30;;
32748;SDS011;19119;52.474;13.710;2023-03-01T19:58:44;22.00;;;10.20;;
32748;SDS011;19119;52.474;13.710;2023-03-01T20:01:18;18.95;;;9.75;;
32748;SDS011;19119;52.474;13.710;2023-03-01T20:03:45;22.02;;;9.55;;
32748;SDS011;19119;52.474;13.710;2023-03-01T20:06:12;28.23;;;10.43;;
32748;SDS011;19119;52.474;13.710;2023-03-01T20:08:39;18.27;;;9.85;;
32748;SDS011;19119;52.474;13.710;2023-03-01T20:11:07;19.40;;;11.38;;
32748;SDS011;19119;52.474;13.710;2023-03-01T20:13:34;24.63;;;11.48;;
32748;SDS011;19119;52.474;13.710;2023-03-01T20:16:00;24.38;;;10.45;;
32748;SDS011;19119;52.474;13.710;2023-03-01T20:18:26;21.50;;;10.98;;
32748;SDS011;19119;52.474;13.710;2023-03-01T20:20:52;23.88;;;10.38;;
32748;SDS011;19119;52.474;13.710;2023-03-01T20:23:18;22.80;;;10.45;;
32748;SDS011;19119;52.474;13.710;2023-03-01T20:25:44;18.98;;;11.43;;
32748;SDS011;19119;52.474;13.710;2023-03-01T20:28:12;20.55;;;10.00;;
32748;SDS011;19119;52.474;13.710;2023-03-01T20:30:39;20.88;;;9.85;;
32748;SDS011;19119;52.474;13.710;2023-03-01T20:33:08;23.15;;;10.93;;
32748;SDS011;19119;52.474;13.710;2023-03-01T20:35:34;27.70;;;11.32;;
32748;SDS011;19119;52.474;13.710;2023-03-01T20:38:03;19.65;;;9.90;;
32748;SDS011;19119;52.474;13.710;2023-03-01T20:40:29;17.75;;;8.57;;
32748;SDS011;19119;52.474;13.710;2023-03-01T20:42:55;23.13;;;9.55;;
32748;SDS011;19119;52.474;13.710;2023-03-01T20:45:21;23.08;;;8.93;;
32748;SDS011;19119;52.474;13.710;2023-03-01T20:47:48;22.05;;;9.68;;
32748;SDS011;19119;52.474;13.710;2023-03-01T20:50:13;21.90;;;8.90;;
32748;SDS011;19119;52.474;13.710;2023-03-01T20:52:39;20.15;;;9.20;;
32748;SDS011;19119;52.474;13.710;2023-03-01T20:55:05;15.27;;;8.27;;
32748;SDS011;19119;52.474;13.710;2023-03-01T20:57:32;18.40;;;8.20;;
32748;SDS011;19119;52.474;13.710;2023-03-01T20:59:58;16.13;;;8.10;;
32748;SDS011;19119;52.474;13.710;2023-03-01T21:02:24;20.77;;;8.73;;
32748;SDS011;19119;52.474;13.710;2023-03-01T21:04:49;20.48;;;9.50;;
32748;SDS011;19119;52.474;13.710;2023-03-01T21:07:15;22.00;;;9.57;;
32748;SDS011;19119;52.474;13.710;2023-03-01T21:09:40;16.17;;;8.50;;
32748;SDS011;19119;52.474;13.710;2023-03-01T21:12:08;17.88;;;8.18;;
32748;SDS011;19119;52.474;13.710;2023-03-01T21:14:35;19.38;;;8.82;;
32748;SDS011;19119;52.474;13.710;2023-03-01T21:17:07;15.43;;;8.20;;
32748;SDS011;19119;52.474;13.710;2023-03-01T21:19:37;24.60;;;9.35;;
32748;SDS011;19119;52.474;13.710;2023-03-01T21:22:04;23.50;;;9.15;;
32748;SDS011;19119;52.474;13.710;2023-03-01T21:24:30;18.88;;;8.90;;
32748;SDS011;19119;52.474;13.710;2023-03-01T21:26:55;16.67;;;8.80;;
32748;SDS011;19119;52.474;13.710;2023-03-01T21:29:21;16.95;;;8.48;;
32748;SDS011;19119;52.474;13.710;2023-03-01T21:31:46;18.50;;;8.13;;
32748;SDS011;19119;52.474;13.710;2023-03-01T21:34:12;25.38;;;9.30;;
32748;SDS011;19119;52.474;13.710;2023-03-01T21:36:38;20.27;;;7.90;;
32748;SDS011;19119;52.474;13.710;2023-03-01T21:39:05;22.48;;;8.98;;
32748;SDS011;19119;52.474;13.710;2023-03-01T21:41:32;22.45;;;8.63;;
32748;SDS011;19119;52.474;13.710;2023-03-01T21:44:00;21.88;;;9.10;;
32748;SDS011;19119;52.474;13.710;2023-03-01T21:46:27;19.33;;;9.05;;
32748;SDS011;19119;52.474;13.710;2023-03-01T21:48:55;18.35;;;8.15;;
32748;SDS011;19119;52.474;13.710;2023-03-01T21:51:22;24.27;;;9.20;;
32748;SDS011;19119;52.474;13.710;2023-03-01T21:53:50;15.02;;;7.30;;
32748;SDS011;19119;52.474;13.710;2023-03-01T21:56:19;21.88;;;7.82;;
32748;SDS011;19119;52.474;13.710;2023-03-01T21:58:47;17.98;;;7.03;;
32748;SDS011;19119;52.474;13.710;2023-03-01T22:01:14;13.20;;;6.53;;
32748;SDS011;19119;52.474;13.710;2023-03-01T22:03:42;15.00;;;6.68;;
32748;SDS011;19119;52.474;13.710;2023-03-01T22:06:10;12.02;;;6.82;;
32748;SDS011;19119;52.474;13.710;2023-03-01T22:08:48;13.48;;;6.85;;
32748;SDS011;19119;52.474;13.710;2023-03-01T22:11:20;18.92;;;7.43;;
32748;SDS011;19119;52.474;13.710;2023-03-01T22:13:47;16.15;;;7.10;;
32748;SDS011;19119;52.474;13.710;2023-03-01T22:16:16;14.23;;;5.82;;
32748;SDS011;19119;52.474;13.710;2023-03-01T22:18:42;17.65;;;5.35;;
32748;SDS011;19119;52.474;13.710;2023-03-01T22:21:08;13.20;;;6.22;;
32748;SDS011;19119;52.474;13.710;2023-03-01T22:23:35;12.35;;;5.75;;
32748;SDS011;19119;52.474;13.710;2023-03-01T22:26:02;12.93;;;5.78;;
32748;SDS011;19119;52.474;13.710;2023-03-01T22:28:28;13.15;;;5.47;;
32748;SDS011;19119;52.474;13.710;2023-03-01T22:30:53;14.43;;;6.35;;
32748;SDS011;19119;52.474;13.710;2023-03-01T22:33:19;12.82;;;5.25;;
32748;SDS011;19119;52.474;13.710;2023-03-01T22:35:45;12.50;;;6.65;;
32748;SDS011;19119;52.474;13.710;2023-03-01T22:38:10;11.48;;;5.75;;
32748;SDS011;19119;52.474;13.710;2023-03-01T22:40:36;9.90;;;5.07;;
32748;SDS011;19119;52.474;13.710;2023-03-01T22:43:02;14.43;;;5.78;;
32748;SDS011;19119;52.474;13.710;2023-03-01T22:45:28;10.88;;;6.57;;
32748;SDS011;19119;52.474;13.710;2023-03-01T22:47:56;16.08;;;6.10;;
32748;SDS011;19119;52.474;13.710;2023-03-01T22:50:28;10.15;;;5.50;;
32748;SDS011;19119;52.474;13.710;2023-03-01T22:52:53;13.65;;;5.40;;
32748;SDS011;19119;52.474;13.710;2023-03-01T22:55:19;12.82;;;5.20;;
32748;SDS011;19119;52.474;13.710;2023-03-01T22:57:48;11.15;;;5.20;;
32748;SDS011;19119;52.474;13.710;2023-03-01T23:00:17;12.77;;;6.28;;
32748;SDS011;19119;52.474;13.710;2023-03-01T23:02:43;15.65;;;6.50;;
32748;SDS011;19119;52.474;13.710;2023-03-01T23:05:08;13.32;;;5.45;;
32748;SDS011;19119;52.474;13.710;2023-03-01T23:07:34;14.68;;;6.95;;
32748;SDS011;19119;52.474;13.710;2023-03-01T23:10:02;16.80;;;6.18;;
32748;SDS011;19119;52.474;13.710;2023-03-01T23:12:28;16.17;;;6.53;;
32748;SDS011;19119;52.474;13.710;2023-03-01T23:14:55;13.50;;;5.13;;
32748;SDS011;19119;52.474;13.710;2023-03-01T23:17:21;14.15;;;6.25;;
32748;SDS011;19119;52.474;13.710;2023-03-01T23:19:47;9.73;;;5.63;;
32748;SDS011;19119;52.474;13.710;2023-03-01T23:22:15;16.45;;;6.20;;
32748;SDS011;19119;52.474;13.710;2023-03-01T23:24:41;11.57;;;6.13;;
32748;SDS011;19119;52.474;13.710;2023-03-01T23:27:07;13.60;;;7.07;;
32748;SDS011;19119;52.474;13.710;2023-03-01T23:29:32;17.77;;;6.35;;
32748;SDS011;19119;52.474;13.710;2023-03-01T23:31:58;15.63;;;6.78;;
32748;SDS011;19119;52.474;13.710;2023-03-01T23:34:24;16.08;;;6.20;;
32748;SDS011;19119;52.474;13.710;2023-03-01T23:36:51;14.57;;;6.55;;
32748;SDS011;19119;52.474;13.710;2023-03-01T23:39:21;16.05;;;7.07;;